Time,TemperatureF,DewpointF,PressureIn,WindDirection,WindDirectionDegrees,WindSpeedMPH,WindSpeedGustMPH,Humidity,HourlyPrecipIn,Conditions,Clouds,dailyrainin,SoftwareType,DateUTC
2013-12-07 00:00:00,36.5,35.2,30.12,NE,39,0.0,0.0,95,0.08,,,0.00,VWS V14.01,2013-12-07 05:00:00,
2013-12-07 00:01:00,36.5,35.2,30.12,NE,39,0.0,0.0,95,0.08,,OVC100,0.00,VWS V14.01,2013-12-07 05:01:00,
2013-12-07 00:02:00,36.5,35.2,30.12,NE,39,0.0,0.0,95,0.08,,OVC100,0.00,VWS V14.01,2013-12-07 05:02:00,
2013-12-07 00:07:00,36.5,35.2,30.12,NNE,21,0.0,0.0,95,0.08,,OVC100,0.04,VWS V14.01,2013-12-07 05:07:00,
2013-12-07 00:12:00,36.3,35.0,30.12,NNE,19,0.0,0.0,95,0.08,,OVC100,0.04,VWS V14.01,2013-12-07 05:12:00,
2013-12-07 00:17:00,36.3,35.0,30.12,NNE,19,0.0,0.0,95,0.08,,OVC100,0.04,VWS V14.01,2013-12-07 05:17:00,
2013-12-07 00:22:00,36.3,35.0,30.12,NE,51,6.3,8.1,95,0.12,,OVC100,0.08,VWS V14.01,2013-12-07 05:22:00,
2013-12-07 00:27:00,36.1,34.8,30.12,NE,55,0.0,7.2,95,0.12,,OVC100,0.08,VWS V14.01,2013-12-07 05:27:00,
2013-12-07 00:32:00,36.0,34.7,30.09,NNE,24,0.0,0.0,95,0.16,,OVC100,0.12,VWS V14.01,2013-12-07 05:32:00,
2013-12-07 00:37:00,36.0,34.7,30.09,North,357,0.0,7.2,95,0.12,,OVC100,0.12,VWS V14.01,2013-12-07 05:37:00,
2013-12-07 00:42:00,35.8,34.5,30.09,NNE,23,7.2,7.2,95,0.12,,OVC100,0.12,VWS V14.01,2013-12-07 05:42:00,
2013-12-07 00:47:00,35.8,34.5,30.09,NNE,28,5.4,6.3,95,0.12,,OVC100,0.12,VWS V14.01,2013-12-07 05:47:00,
2013-12-07 00:52:00,35.8,34.5,30.09,ENE,58,0.0,6.3,95,0.16,,OVC100,0.16,VWS V14.01,2013-12-07 05:52:00,
2013-12-07 00:57:00,35.8,34.5,30.09,NNW,344,5.4,5.4,95,0.16,,OVC100,0.16,VWS V14.01,2013-12-07 05:57:00,
2013-12-07 01:02:00,35.6,34.1,30.12,NNE,24,0.0,0.0,94,0.16,,,0.16,VWS V14.01,2013-12-07 06:02:00,
2013-12-07 01:07:00,35.6,34.1,30.12,NE,40,0.0,6.3,94,0.12,,,0.16,VWS V14.01,2013-12-07 06:07:00,
2013-12-07 01:12:00,35.4,34.0,30.12,North,2,0.0,5.4,94,0.12,,,0.16,VWS V14.01,2013-12-07 06:12:00,
2013-12-07 01:17:00,35.4,34.0,30.09,North,2,0.0,0.0,94,0.12,,,0.16,VWS V14.01,2013-12-07 06:17:00,
2013-12-07 01:22:00,35.4,34.0,30.09,NNE,27,4.5,8.1,94,0.08,,,0.16,VWS V14.01,2013-12-07 06:22:00,
2013-12-07 01:27:00,35.4,34.0,30.09,NNE,24,0.0,0.0,94,0.08,,,0.16,VWS V14.01,2013-12-07 06:27:00,
2013-12-07 01:32:00,35.2,33.8,30.09,NNE,22,0.0,0.0,94,0.04,,,0.16,VWS V14.01,2013-12-07 06:32:00,
2013-12-07 01:37:00,35.2,33.8,30.09,North,11,0.0,0.0,94,0.04,,,0.16,VWS V14.01,2013-12-07 06:37:00,
2013-12-07 01:42:00,35.2,33.8,30.09,North,11,0.0,0.0,94,0.04,,,0.16,VWS V14.01,2013-12-07 06:42:00,
2013-12-07 01:47:00,35.2,33.8,30.09,North,357,0.0,0.0,94,0.04,,,0.16,VWS V14.01,2013-12-07 06:47:00,
2013-12-07 01:51:00,35.2,33.8,30.09,North,8,0.0,0.0,94,0.00,,,0.16,VWS V14.01,2013-12-07 06:51:00,
2013-12-07 01:56:00,35.2,33.8,30.09,North,0,0.0,5.4,94,0.00,,,0.16,VWS V14.01,2013-12-07 06:56:00,
2013-12-07 02:01:00,35.2,33.8,30.09,North,357,0.0,0.0,94,0.00,,OVC095,0.16,VWS V14.01,2013-12-07 07:01:00,
2013-12-07 02:06:00,35.2,33.8,30.09,North,9,7.2,9.8,94,0.00,,OVC095,0.16,VWS V14.01,2013-12-07 07:06:00,
2013-12-07 02:11:00,35.2,33.8,30.09,North,6,6.3,6.3,94,0.00,,OVC095,0.16,VWS V14.01,2013-12-07 07:11:00,
2013-12-07 02:16:00,35.2,33.8,30.09,NNE,26,0.0,7.2,94,0.00,,OVC095,0.16,VWS V14.01,2013-12-07 07:16:00,
2013-12-07 02:21:00,35.1,33.6,30.09,North,3,0.0,0.0,94,0.00,,OVC095,0.16,VWS V14.01,2013-12-07 07:21:00,
2013-12-07 02:26:00,35.1,33.6,30.09,NNE,15,0.0,5.4,94,0.00,,OVC095,0.16,VWS V14.01,2013-12-07 07:26:00,
2013-12-07 02:31:00,35.1,33.6,30.06,North,6,0.0,0.0,94,0.00,,OVC095,0.16,VWS V14.01,2013-12-07 07:31:00,
2013-12-07 02:36:00,35.1,33.6,30.06,North,6,0.0,0.0,94,0.00,,OVC095,0.16,VWS V14.01,2013-12-07 07:36:00,
2013-12-07 02:41:00,35.1,33.6,30.06,NNW,337,0.0,7.2,94,0.00,,OVC095,0.16,VWS V14.01,2013-12-07 07:41:00,
2013-12-07 02:46:00,35.1,33.8,30.15,NNW,337,0.0,0.0,95,0.00,,OVC095,0.16,VWS V14.01,2013-12-07 07:46:00,
2013-12-07 02:51:00,35.1,33.8,30.15,NNW,348,4.5,7.2,95,0.00,,OVC095,0.16,VWS V14.01,2013-12-07 07:51:00,
2013-12-07 02:56:00,35.1,33.8,30.15,NNW,348,0.0,0.0,95,0.00,,OVC095,0.16,VWS V14.01,2013-12-07 07:56:00,
2013-12-07 03:01:00,35.1,33.8,30.15,NW,321,0.0,4.5,95,0.00,,OVC011,0.16,VWS V14.01,2013-12-07 08:01:00,
2013-12-07 03:06:00,35.1,33.8,30.15,NW,321,0.0,4.5,95,0.00,,OVC011,0.16,VWS V14.01,2013-12-07 08:06:00,
2013-12-07 03:11:00,35.1,33.8,30.15,NNW,336,0.0,6.3,95,0.00,,OVC011,0.16,VWS V14.01,2013-12-07 08:11:00,
2013-12-07 03:16:00,35.1,33.8,30.15,NNW,336,0.0,0.0,95,0.00,,OVC011,0.16,VWS V14.01,2013-12-07 08:16:00,
2013-12-07 03:21:00,35.1,33.8,30.15,NNW,336,0.0,0.0,95,0.00,,OVC011,0.16,VWS V14.01,2013-12-07 08:21:00,
2013-12-07 03:26:00,35.1,33.8,30.15,NNW,336,0.0,0.0,95,0.00,,OVC011,0.16,VWS V14.01,2013-12-07 08:26:00,
2013-12-07 03:31:00,35.1,33.8,30.15,NNW,336,0.0,0.0,95,0.00,,OVC011,0.16,VWS V14.01,2013-12-07 08:31:00,
2013-12-07 03:36:00,35.1,33.8,30.15,NNW,335,0.0,0.0,95,0.00,,OVC011,0.16,VWS V14.01,2013-12-07 08:36:00,
2013-12-07 03:41:00,35.1,33.8,30.15,NNW,336,0.0,0.0,95,0.00,,OVC011,0.16,VWS V14.01,2013-12-07 08:41:00,
2013-12-07 03:46:00,35.1,34.0,30.15,NNW,337,0.0,0.0,96,0.00,,OVC011,0.16,VWS V14.01,2013-12-07 08:46:00,
2013-12-07 03:51:00,35.1,34.0,30.15,NNW,337,0.0,0.0,96,0.00,,OVC011,0.16,VWS V14.01,2013-12-07 08:51:00,
2013-12-07 03:56:00,35.1,34.0,30.15,NNW,337,0.0,0.0,96,0.00,,OVC011,0.16,VWS V14.01,2013-12-07 08:56:00,
2013-12-07 04:01:00,35.1,34.0,30.15,NNW,337,0.0,0.0,96,0.00,,OVC011,0.16,VWS V14.01,2013-12-07 09:01:00,
2013-12-07 04:06:00,35.1,34.0,30.15,NNW,337,0.0,0.0,96,0.00,,OVC011,0.16,VWS V14.01,2013-12-07 09:06:00,
2013-12-07 04:11:00,35.1,34.0,30.15,NNW,337,0.0,0.0,96,0.00,,OVC011,0.16,VWS V14.01,2013-12-07 09:11:00,
2013-12-07 04:16:00,34.9,33.8,30.15,NNW,337,0.0,0.0,96,0.00,,OVC011,0.16,VWS V14.01,2013-12-07 09:16:00,
2013-12-07 04:21:00,34.9,33.8,30.15,North,353,0.0,6.3,96,0.00,,OVC011,0.16,VWS V14.01,2013-12-07 09:21:00,
2013-12-07 04:26:00,34.9,33.8,30.15,North,353,0.0,0.0,96,0.00,,OVC011,0.16,VWS V14.01,2013-12-07 09:26:00,
2013-12-07 04:31:00,34.9,33.8,30.15,North,353,0.0,0.0,96,0.00,,OVC011,0.16,VWS V14.01,2013-12-07 09:31:00,
2013-12-07 04:36:00,34.9,33.8,30.15,North,353,0.0,0.0,96,0.00,,OVC011,0.16,VWS V14.01,2013-12-07 09:36:00,
2013-12-07 04:41:00,34.9,33.8,30.15,North,353,0.0,0.0,96,0.00,,OVC011,0.16,VWS V14.01,2013-12-07 09:41:00,
2013-12-07 04:46:00,34.9,33.8,30.15,North,353,0.0,0.0,96,0.00,,OVC011,0.16,VWS V14.01,2013-12-07 09:46:00,
2013-12-07 04:51:00,34.9,33.8,30.15,North,353,0.0,0.0,96,0.04,,OVC011,0.20,VWS V14.01,2013-12-07 09:51:00,
2013-12-07 04:56:00,34.9,33.8,30.15,North,353,0.0,0.0,96,0.04,,OVC011,0.20,VWS V14.01,2013-12-07 09:56:00,
2013-12-07 05:01:00,34.9,33.8,30.15,North,353,0.0,0.0,96,0.04,,OVC013,0.20,VWS V14.01,2013-12-07 10:01:00,
2013-12-07 05:06:00,34.7,33.6,30.15,NNW,348,0.0,0.0,96,0.04,,OVC013,0.20,VWS V14.01,2013-12-07 10:06:00,
2013-12-07 05:11:00,34.7,33.6,30.15,NNW,345,0.0,0.0,96,0.04,,OVC013,0.20,VWS V14.01,2013-12-07 10:11:00,
2013-12-07 05:16:00,34.7,33.6,30.18,NNW,345,0.0,0.0,96,0.04,,OVC013,0.20,VWS V14.01,2013-12-07 10:16:00,
2013-12-07 05:21:00,34.5,33.4,30.18,NNW,345,0.0,0.0,96,0.04,,OVC013,0.20,VWS V14.01,2013-12-07 10:21:00,
2013-12-07 05:26:00,34.5,33.4,30.18,NNW,345,0.0,0.0,96,0.04,,OVC013,0.20,VWS V14.01,2013-12-07 10:26:00,
2013-12-07 05:31:00,34.7,33.6,30.18,NNW,345,0.0,0.0,96,0.04,,OVC013,0.20,VWS V14.01,2013-12-07 10:31:00,
2013-12-07 05:36:00,34.5,33.4,30.18,NNW,345,0.0,0.0,96,0.04,,OVC013,0.20,VWS V14.01,2013-12-07 10:36:00,
2013-12-07 05:41:00,34.5,33.2,30.18,NNW,345,0.0,0.0,95,0.04,,OVC013,0.20,VWS V14.01,2013-12-07 10:41:00,
2013-12-07 05:46:00,34.5,33.2,30.18,North,0,0.0,7.2,95,0.04,,OVC013,0.20,VWS V14.01,2013-12-07 10:46:00,
2013-12-07 05:51:00,34.5,33.2,30.18,North,0,0.0,0.0,95,0.04,,OVC013,0.20,VWS V14.01,2013-12-07 10:51:00,
2013-12-07 05:56:00,34.5,33.2,30.18,North,353,0.0,6.3,95,0.00,,OVC013,0.20,VWS V14.01,2013-12-07 10:56:00,
2013-12-07 06:01:00,34.3,33.1,30.18,North,353,0.0,0.0,95,0.00,,OVC014,0.20,VWS V14.01,2013-12-07 11:01:00,
2013-12-07 06:06:00,34.3,32.9,30.18,NNE,14,0.0,0.0,94,0.00,,OVC014,0.20,VWS V14.01,2013-12-07 11:06:00,
2013-12-07 06:11:00,34.3,32.9,30.18,North,357,0.0,0.0,94,0.00,,OVC014,0.20,VWS V14.01,2013-12-07 11:11:00,
2013-12-07 06:16:00,34.3,32.9,30.18,North,357,0.0,0.0,94,0.00,,OVC014,0.20,VWS V14.01,2013-12-07 11:16:00,
2013-12-07 06:21:00,34.0,32.3,30.18,North,5,0.0,5.4,94,0.00,,OVC014,0.20,VWS V14.01,2013-12-07 11:21:00,
2013-12-07 06:26:00,33.8,32.2,30.18,NNW,348,0.0,0.0,94,0.00,,OVC014,0.20,VWS V14.01,2013-12-07 11:26:00,
2013-12-07 06:31:00,33.6,32.0,30.18,North,353,0.0,0.0,94,0.00,,OVC014,0.20,VWS V14.01,2013-12-07 11:31:00,
2013-12-07 06:36:00,33.4,31.8,30.18,North,353,0.0,0.0,94,0.00,,OVC014,0.20,VWS V14.01,2013-12-07 11:36:00,
2013-12-07 06:41:00,33.3,31.5,30.18,North,353,0.0,0.0,93,0.00,,OVC014,0.20,VWS V14.01,2013-12-07 11:41:00,
2013-12-07 06:46:00,33.1,31.3,30.21,North,0,0.0,0.0,93,0.00,,OVC014,0.20,VWS V14.01,2013-12-07 11:46:00,
2013-12-07 06:51:00,33.1,31.5,30.21,North,0,0.0,0.0,94,0.00,,OVC014,0.20,VWS V14.01,2013-12-07 11:51:00,
2013-12-07 06:56:00,33.3,31.6,30.21,North,0,0.0,0.0,94,0.00,,OVC014,0.20,VWS V14.01,2013-12-07 11:56:00,
2013-12-07 07:01:00,33.3,31.6,30.21,North,0,0.0,0.0,94,0.00,,OVC018,0.20,VWS V14.01,2013-12-07 12:01:00,
2013-12-07 07:06:00,33.3,31.6,30.21,North,0,0.0,0.0,94,0.00,,OVC018,0.20,VWS V14.01,2013-12-07 12:06:00,
2013-12-07 07:11:00,33.3,31.6,30.21,North,0,0.0,0.0,94,0.00,,OVC018,0.20,VWS V14.01,2013-12-07 12:11:00,
2013-12-07 07:16:00,33.4,32.0,30.21,North,0,0.0,0.0,94,0.00,,OVC018,0.20,VWS V14.01,2013-12-07 12:16:00,
2013-12-07 07:21:00,33.6,32.2,30.21,North,0,0.0,0.0,94,0.00,,OVC018,0.20,VWS V14.01,2013-12-07 12:21:00,
2013-12-07 07:26:00,33.6,32.2,30.21,North,0,0.0,0.0,94,0.00,,OVC018,0.20,VWS V14.01,2013-12-07 12:26:00,
2013-12-07 07:31:00,33.8,32.3,30.21,North,0,0.0,0.0,94,0.00,,OVC018,0.20,VWS V14.01,2013-12-07 12:31:00,
2013-12-07 07:36:00,33.8,32.3,30.21,North,0,0.0,0.0,94,0.00,,OVC018,0.20,VWS V14.01,2013-12-07 12:36:00,
2013-12-07 07:41:00,34.0,32.5,30.21,North,0,0.0,0.0,94,0.00,,OVC018,0.20,VWS V14.01,2013-12-07 12:41:00,
2013-12-07 07:46:00,34.2,32.7,30.21,North,0,0.0,0.0,94,0.00,,OVC018,0.20,VWS V14.01,2013-12-07 12:46:00,
2013-12-07 07:51:00,34.3,32.9,30.21,North,0,0.0,0.0,94,0.00,,OVC018,0.20,VWS V14.01,2013-12-07 12:51:00,
2013-12-07 07:56:00,34.3,32.9,30.21,North,0,0.0,0.0,94,0.00,,OVC018,0.20,VWS V14.01,2013-12-07 12:56:00,
2013-12-07 08:01:00,34.5,33.1,30.24,North,0,0.0,0.0,94,0.00,,OVC020,0.20,VWS V14.01,2013-12-07 13:01:00,
2013-12-07 08:06:00,34.7,33.2,30.24,North,0,0.0,0.0,94,0.00,,OVC020,0.20,VWS V14.01,2013-12-07 13:06:00,
2013-12-07 08:11:00,34.9,33.4,30.24,North,0,0.0,0.0,94,0.00,,OVC020,0.20,VWS V14.01,2013-12-07 13:11:00,
2013-12-07 08:16:00,34.9,33.4,30.24,North,0,0.0,0.0,94,0.00,,OVC020,0.20,VWS V14.01,2013-12-07 13:16:00,
2013-12-07 08:21:00,34.7,33.1,30.24,North,0,0.0,0.0,94,0.00,,OVC020,0.20,VWS V14.01,2013-12-07 13:21:00,
2013-12-07 08:26:00,34.3,32.7,30.24,North,0,0.0,0.0,94,0.00,,OVC020,0.20,VWS V14.01,2013-12-07 13:26:00,
2013-12-07 08:31:00,34.3,32.5,30.24,North,0,0.0,0.0,93,0.00,,OVC020,0.20,VWS V14.01,2013-12-07 13:31:00,
2013-12-07 08:36:00,34.5,32.7,30.24,North,0,0.0,0.0,93,0.00,,OVC020,0.20,VWS V14.01,2013-12-07 13:36:00,
2013-12-07 08:41:00,34.7,32.9,30.24,North,0,0.0,0.0,93,0.00,,OVC020,0.20,VWS V14.01,2013-12-07 13:41:00,
2013-12-07 08:46:00,34.7,32.7,30.27,North,0,0.0,0.0,92,0.00,,OVC020,0.20,VWS V14.01,2013-12-07 13:46:00,
2013-12-07 08:51:00,34.9,32.9,30.27,North,0,0.0,0.0,92,0.00,,OVC020,0.20,VWS V14.01,2013-12-07 13:51:00,
2013-12-07 08:56:00,35.4,33.4,30.27,North,0,0.0,0.0,92,0.00,,OVC020,0.20,VWS V14.01,2013-12-07 13:56:00,
2013-12-07 09:01:00,36.0,33.8,30.27,NNW,330,0.0,5.4,92,0.00,,,0.20,VWS V14.01,2013-12-07 14:01:00,
2013-12-07 09:06:00,36.1,33.9,30.27,NNW,331,0.0,0.0,92,0.00,,,0.20,VWS V14.01,2013-12-07 14:06:00,
2013-12-07 09:11:00,36.0,32.8,30.27,NNW,330,0.0,0.0,88,0.00,,,0.20,VWS V14.01,2013-12-07 14:11:00,
2013-12-07 09:16:00,36.0,32.2,30.27,NNW,330,0.0,0.0,86,0.00,,,0.20,VWS V14.01,2013-12-07 14:16:00,
2013-12-07 09:21:00,36.1,31.4,30.27,NW,325,0.0,0.0,83,0.00,,,0.20,VWS V14.01,2013-12-07 14:21:00,
2013-12-07 09:26:00,36.1,30.4,30.27,NNW,330,0.0,0.0,79,0.00,,,0.20,VWS V14.01,2013-12-07 14:26:00,
2013-12-07 09:31:00,36.1,30.0,30.27,NW,326,0.0,7.2,78,0.00,,,0.20,VWS V14.01,2013-12-07 14:31:00,
2013-12-07 09:36:00,36.3,29.3,30.27,NNW,344,5.4,8.1,75,0.00,,,0.20,VWS V14.01,2013-12-07 14:36:00,
2013-12-07 09:41:00,36.9,29.1,30.27,North,353,7.2,9.8,73,0.00,,,0.20,VWS V14.01,2013-12-07 14:41:00,
2013-12-07 09:46:00,37.0,28.9,30.27,North,0,7.2,9.8,72,0.00,,,0.20,VWS V14.01,2013-12-07 14:46:00,
2013-12-07 09:51:00,37.4,29.0,30.27,NNE,19,5.4,10.7,71,0.00,,,0.20,VWS V14.01,2013-12-07 14:51:00,
2013-12-07 09:56:00,38.3,29.4,30.27,North,353,5.4,8.9,70,0.00,,,0.20,VWS V14.01,2013-12-07 14:56:00,
2013-12-07 10:01:00,39.9,30.7,30.27,North,10,6.3,8.1,69,0.00,,,0.20,VWS V14.01,2013-12-07 15:01:00,
2013-12-07 10:06:00,39.6,30.3,30.27,NNE,13,7.2,7.2,69,0.00,,,0.20,VWS V14.01,2013-12-07 15:06:00,
2013-12-07 10:11:00,39.6,30.3,30.27,NW,304,10.7,11.6,69,0.00,,,0.20,VWS V14.01,2013-12-07 15:11:00,
2013-12-07 10:16:00,39.4,29.9,30.27,WNW,288,11.6,11.6,69,0.00,,,0.20,VWS V14.01,2013-12-07 15:16:00,
2013-12-07 10:21:00,40.1,30.6,30.27,NNW,330,0.0,6.3,69,0.00,,,0.20,VWS V14.01,2013-12-07 15:21:00,
2013-12-07 10:26:00,40.3,30.5,30.27,North,10,10.7,12.5,68,0.00,,,0.20,VWS V14.01,2013-12-07 15:26:00,
2013-12-07 10:31:00,39.7,30.0,30.27,North,353,4.5,8.1,68,0.00,,,0.20,VWS V14.01,2013-12-07 15:31:00,
2013-12-07 10:36:00,40.3,30.8,30.27,NNW,345,0.0,6.3,69,0.00,,,0.20,VWS V14.01,2013-12-07 15:36:00,
2013-12-07 10:41:00,41.4,31.6,30.27,North,349,5.4,6.3,68,0.00,,,0.20,VWS V14.01,2013-12-07 15:41:00,
2013-12-07 10:46:00,41.5,31.8,30.27,NNE,20,5.4,5.4,68,0.00,,,0.20,VWS V14.01,2013-12-07 15:46:00,
2013-12-07 10:51:00,41.2,30.4,30.27,North,353,6.3,6.3,65,0.00,,,0.20,VWS V14.01,2013-12-07 15:51:00,
2013-12-07 10:56:00,40.6,30.1,30.27,NNW,337,4.5,7.2,66,0.00,,,0.20,VWS V14.01,2013-12-07 15:56:00,
2013-12-07 11:01:00,40.3,29.5,30.27,North,6,6.3,11.6,65,0.00,,,0.20,VWS V14.01,2013-12-07 16:01:00,
2013-12-07 11:06:00,39.2,28.5,30.27,NNW,331,7.2,8.1,65,0.00,,,0.20,VWS V14.01,2013-12-07 16:06:00,
2013-12-07 11:11:00,38.3,27.7,30.27,North,350,6.3,7.2,65,0.00,,,0.20,VWS V14.01,2013-12-07 16:11:00,
2013-12-07 11:16:00,38.1,28.0,30.27,NNW,346,10.7,11.6,67,0.00,,,0.20,VWS V14.01,2013-12-07 16:16:00,
2013-12-07 11:21:00,38.1,27.7,30.27,North,353,5.4,8.1,66,0.00,,,0.20,VWS V14.01,2013-12-07 16:21:00,
2013-12-07 11:26:00,38.5,28.3,30.27,WNW,302,10.7,11.6,67,0.00,,,0.20,VWS V14.01,2013-12-07 16:26:00,
2013-12-07 11:31:00,38.3,27.7,30.27,NW,322,6.3,10.7,65,0.00,,,0.20,VWS V14.01,2013-12-07 16:31:00,
2013-12-07 11:36:00,37.9,27.3,30.27,North,0,6.3,9.8,65,0.00,,,0.20,VWS V14.01,2013-12-07 16:36:00,
2013-12-07 11:41:00,37.9,27.6,30.27,North,0,6.3,11.6,66,0.00,,,0.20,VWS V14.01,2013-12-07 16:41:00,
2013-12-07 11:46:00,37.9,27.3,30.27,East,94,10.7,10.7,65,0.00,,,0.20,VWS V14.01,2013-12-07 16:46:00,
2013-12-07 11:51:00,38.8,28.2,30.27,NNW,332,11.6,11.6,65,0.00,,,0.20,VWS V14.01,2013-12-07 16:51:00,
2013-12-07 11:56:00,39.4,28.4,30.27,NE,35,8.1,8.1,65,0.00,,,0.20,VWS V14.01,2013-12-07 16:56:00,
2013-12-07 12:01:00,38.8,28.2,30.27,NW,320,6.3,14.3,65,0.00,,,0.20,VWS V14.01,2013-12-07 17:01:00,
2013-12-07 12:06:00,38.7,28.3,30.27,NNW,342,4.5,6.3,66,0.00,,,0.20,VWS V14.01,2013-12-07 17:06:00,
2013-12-07 12:11:00,39.6,28.9,30.27,North,353,4.5,8.1,65,0.00,,,0.20,VWS V14.01,2013-12-07 17:11:00,
2013-12-07 12:16:00,40.5,29.2,30.27,North,5,4.5,10.7,64,0.00,,,0.20,VWS V14.01,2013-12-07 17:16:00,
2013-12-07 12:21:00,39.9,28.7,30.27,NNE,19,6.3,10.7,64,0.00,,,0.20,VWS V14.01,2013-12-07 17:21:00,
2013-12-07 12:26:00,39.7,28.8,30.27,NNE,14,4.5,9.8,65,0.00,,,0.20,VWS V14.01,2013-12-07 17:26:00,
2013-12-07 12:31:00,39.9,29.0,30.27,NNE,14,7.2,10.7,65,0.00,,,0.20,VWS V14.01,2013-12-07 17:31:00,
2013-12-07 12:36:00,39.7,28.5,30.27,North,4,7.2,7.2,64,0.00,,,0.20,VWS V14.01,2013-12-07 17:36:00,
2013-12-07 12:41:00,39.4,28.2,30.27,NNE,21,7.2,11.6,64,0.00,,,0.20,VWS V14.01,2013-12-07 17:41:00,
2013-12-07 12:46:00,39.6,28.4,30.27,NNE,29,11.6,11.6,64,0.00,,,0.20,VWS V14.01,2013-12-07 17:46:00,
2013-12-07 12:51:00,39.4,27.9,30.27,North,11,0.0,8.1,63,0.00,,,0.20,VWS V14.01,2013-12-07 17:51:00,
2013-12-07 12:56:00,39.6,28.4,30.27,NNE,33,4.5,9.8,64,0.00,,,0.20,VWS V14.01,2013-12-07 17:56:00,
2013-12-07 13:01:00,38.8,27.4,30.27,North,349,0.0,5.4,63,0.00,,OVC021,0.20,VWS V14.01,2013-12-07 18:01:00,
2013-12-07 13:06:00,38.7,27.2,30.27,NNE,29,8.1,9.8,63,0.00,,OVC021,0.20,VWS V14.01,2013-12-07 18:06:00,
2013-12-07 13:11:00,38.7,27.2,30.27,NE,41,5.4,11.6,63,0.00,,OVC021,0.20,VWS V14.01,2013-12-07 18:11:00,
2013-12-07 13:16:00,38.5,27.1,30.27,North,353,6.3,6.3,63,0.00,,OVC021,0.20,VWS V14.01,2013-12-07 18:16:00,
2013-12-07 13:21:00,38.5,27.3,30.27,NNW,336,0.0,0.0,64,0.00,,OVC021,0.20,VWS V14.01,2013-12-07 18:21:00,
2013-12-07 13:26:00,38.3,26.6,30.27,North,349,6.3,17.4,63,0.00,,OVC021,0.20,VWS V14.01,2013-12-07 18:26:00,
2013-12-07 13:30:00,38.7,27.0,30.27,North,6,6.3,6.3,63,0.00,,OVC021,0.20,VWS V14.01,2013-12-07 18:30:00,
2013-12-07 13:35:00,38.5,26.8,30.27,North,11,7.2,7.2,63,0.00,,OVC021,0.20,VWS V14.01,2013-12-07 18:35:00,
2013-12-07 13:40:00,38.1,26.5,30.27,NE,36,7.2,8.9,63,0.00,,OVC021,0.20,VWS V14.01,2013-12-07 18:40:00,
2013-12-07 13:45:00,38.1,26.5,30.27,NW,318,5.4,6.3,63,0.00,,OVC021,0.20,VWS V14.01,2013-12-07 18:45:00,
2013-12-07 13:50:00,37.9,26.3,30.27,NNW,329,8.1,10.7,63,0.00,,OVC021,0.20,VWS V14.01,2013-12-07 18:50:00,
2013-12-07 13:55:00,37.6,26.0,30.27,North,0,0.0,7.2,63,0.00,,OVC021,0.20,VWS V14.01,2013-12-07 18:55:00,
2013-12-07 14:00:00,37.6,26.0,30.27,North,2,11.6,11.6,63,0.00,,,0.20,VWS V14.01,2013-12-07 19:00:00,
2013-12-07 14:05:00,37.6,26.0,30.27,NNW,338,0.0,6.3,63,0.00,,,0.20,VWS V14.01,2013-12-07 19:05:00,
2013-12-07 14:10:00,37.8,26.1,30.27,WNW,293,7.2,8.1,63,0.00,,,0.20,VWS V14.01,2013-12-07 19:10:00,
2013-12-07 14:15:00,37.8,26.1,30.27,NNW,340,6.3,6.3,63,0.00,,,0.20,VWS V14.01,2013-12-07 19:15:00,
2013-12-07 14:20:00,37.9,26.3,30.27,WNW,299,7.2,8.1,63,0.00,,,0.20,VWS V14.01,2013-12-07 19:20:00,
2013-12-07 14:25:00,37.9,26.3,30.27,North,1,0.0,0.0,63,0.00,,,0.20,VWS V14.01,2013-12-07 19:25:00,
2013-12-07 14:30:00,37.8,26.1,30.27,North,4,6.3,7.2,63,0.00,,,0.20,VWS V14.01,2013-12-07 19:30:00,
2013-12-07 14:35:00,37.6,26.0,30.27,NNW,341,6.3,6.3,63,0.00,,,0.20,VWS V14.01,2013-12-07 19:35:00,
2013-12-07 14:40:00,37.2,25.6,30.27,North,0,7.2,7.2,63,0.00,,,0.20,VWS V14.01,2013-12-07 19:40:00,
2013-12-07 14:45:00,37.0,25.4,30.30,North,353,5.4,8.1,63,0.00,,,0.20,VWS V14.01,2013-12-07 19:45:00,
2013-12-07 14:50:00,36.7,25.4,30.30,North,357,0.0,5.4,63,0.00,,,0.20,VWS V14.01,2013-12-07 19:50:00,
2013-12-07 14:55:00,36.5,25.2,30.30,North,0,5.4,8.1,63,0.00,,,0.20,VWS V14.01,2013-12-07 19:55:00,
2013-12-07 15:00:00,36.3,25.0,30.30,WNW,297,9.8,9.8,63,0.00,,OVC024,0.20,VWS V14.01,2013-12-07 20:00:00,
2013-12-07 15:05:00,36.1,24.6,30.30,NW,323,0.0,6.3,63,0.00,,OVC024,0.20,VWS V14.01,2013-12-07 20:05:00,
2013-12-07 15:10:00,35.8,24.5,30.30,NNE,32,5.4,6.3,63,0.00,,OVC024,0.20,VWS V14.01,2013-12-07 20:10:00,
2013-12-07 15:15:00,35.6,24.3,30.30,North,11,5.4,8.1,63,0.00,,OVC024,0.20,VWS V14.01,2013-12-07 20:15:00,
2013-12-07 15:20:00,35.4,24.2,30.30,NNW,344,4.5,9.8,63,0.00,,OVC024,0.20,VWS V14.01,2013-12-07 20:20:00,
2013-12-07 15:25:00,35.4,24.2,30.30,WNW,301,0.0,6.3,63,0.00,,OVC024,0.20,VWS V14.01,2013-12-07 20:25:00,
2013-12-07 15:30:00,35.2,24.0,30.30,WNW,289,7.2,7.2,63,0.00,,OVC024,0.20,VWS V14.01,2013-12-07 20:30:00,
2013-12-07 15:35:00,35.1,23.8,30.30,NNW,330,0.0,5.4,63,0.00,,OVC024,0.20,VWS V14.01,2013-12-07 20:35:00,
2013-12-07 15:40:00,34.9,23.9,30.30,WNW,296,0.0,0.0,64,0.00,,OVC024,0.20,VWS V14.01,2013-12-07 20:40:00,
2013-12-07 15:45:00,34.9,23.6,30.30,North,357,0.0,0.0,63,0.00,,OVC024,0.20,VWS V14.01,2013-12-07 20:45:00,
2013-12-07 15:50:00,34.5,23.3,30.30,North,353,6.3,6.3,63,0.00,,OVC024,0.20,VWS V14.01,2013-12-07 20:50:00,
2013-12-07 15:55:00,34.5,23.3,30.30,NW,322,0.0,0.0,63,0.00,,OVC024,0.20,VWS V14.01,2013-12-07 20:55:00,
2013-12-07 16:00:00,34.3,23.1,30.33,NW,322,0.0,0.0,63,0.00,,,0.20,VWS V14.01,2013-12-07 21:00:00,
2013-12-07 16:05:00,34.0,22.8,30.33,NW,322,0.0,0.0,63,0.00,,,0.20,VWS V14.01,2013-12-07 21:05:00,
2013-12-07 16:10:00,33.6,22.7,30.33,NW,322,0.0,0.0,64,0.00,,,0.20,VWS V14.01,2013-12-07 21:10:00,
2013-12-07 16:15:00,33.4,22.5,30.33,NW,322,0.0,0.0,64,0.00,,,0.20,VWS V14.01,2013-12-07 21:15:00,
2013-12-07 16:20:00,33.4,22.5,30.33,NW,322,0.0,0.0,64,0.00,,,0.20,VWS V14.01,2013-12-07 21:20:00,
2013-12-07 16:25:00,33.1,22.2,30.33,NW,322,0.0,0.0,64,0.00,,,0.20,VWS V14.01,2013-12-07 21:25:00,
2013-12-07 16:30:00,33.1,22.2,30.33,North,4,0.0,5.4,64,0.00,,,0.20,VWS V14.01,2013-12-07 21:30:00,
2013-12-07 16:35:00,32.9,22.3,30.33,North,2,0.0,0.0,65,0.00,,,0.20,VWS V14.01,2013-12-07 21:35:00,
2013-12-07 16:40:00,32.7,21.9,30.33,North,2,0.0,0.0,64,0.00,,,0.20,VWS V14.01,2013-12-07 21:40:00,
2013-12-07 16:45:00,32.7,21.9,30.33,North,2,0.0,0.0,64,0.00,,,0.20,VWS V14.01,2013-12-07 21:45:00,
2013-12-07 16:50:00,32.7,21.9,30.33,North,2,0.0,0.0,64,0.00,,,0.20,VWS V14.01,2013-12-07 21:50:00,
2013-12-07 16:55:00,32.5,21.7,30.33,North,3,4.5,6.3,64,0.00,,,0.20,VWS V14.01,2013-12-07 21:55:00,
2013-12-07 17:00:00,32.5,21.7,30.36,North,4,0.0,0.0,64,0.00,,OVC026,0.20,VWS V14.01,2013-12-07 22:00:00,
2013-12-07 17:05:00,32.2,21.6,30.36,North,4,0.0,0.0,65,0.00,,OVC026,0.20,VWS V14.01,2013-12-07 22:05:00,
2013-12-07 17:10:00,32.0,21.4,30.36,North,4,0.0,0.0,65,0.00,,OVC026,0.20,VWS V14.01,2013-12-07 22:10:00,
2013-12-07 17:15:00,31.5,20.9,30.36,North,4,0.0,0.0,65,0.00,,OVC026,0.20,VWS V14.01,2013-12-07 22:15:00,
2013-12-07 17:20:00,31.3,20.7,30.36,North,4,0.0,0.0,65,0.00,,OVC026,0.20,VWS V14.01,2013-12-07 22:20:00,
2013-12-07 17:25:00,31.1,20.6,30.36,North,4,0.0,0.0,65,0.00,,OVC026,0.20,VWS V14.01,2013-12-07 22:25:00,
2013-12-07 17:30:00,31.1,20.6,30.36,North,4,0.0,0.0,65,0.00,,OVC026,0.20,VWS V14.01,2013-12-07 22:30:00,
2013-12-07 17:35:00,30.9,20.6,30.36,North,5,0.0,0.0,65,0.00,,OVC026,0.20,VWS V14.01,2013-12-07 22:35:00,
2013-12-07 17:40:00,30.9,20.6,30.36,North,5,0.0,0.0,65,0.00,,OVC026,0.20,VWS V14.01,2013-12-07 22:40:00,
2013-12-07 17:45:00,30.6,20.3,30.36,North,5,0.0,0.0,65,0.00,,OVC026,0.20,VWS V14.01,2013-12-07 22:45:00,
2013-12-07 17:50:00,30.6,20.3,30.36,North,1,0.0,0.0,65,0.00,,OVC026,0.20,VWS V14.01,2013-12-07 22:50:00,
2013-12-07 17:55:00,30.6,20.3,30.36,North,1,0.0,0.0,65,0.00,,OVC026,0.20,VWS V14.01,2013-12-07 22:55:00,
2013-12-07 18:00:00,30.2,20.2,30.39,North,1,0.0,0.0,66,0.00,,OVC026,0.20,VWS V14.01,2013-12-07 23:00:00,
2013-12-07 18:05:00,30.0,20.0,30.39,North,1,0.0,0.0,66,0.00,,,0.20,VWS V14.01,2013-12-07 23:05:00,
2013-12-07 18:10:00,29.8,19.9,30.39,North,1,0.0,0.0,66,0.00,,,0.20,VWS V14.01,2013-12-07 23:10:00,
2013-12-07 18:15:00,29.7,19.7,30.39,North,1,0.0,0.0,66,0.00,,,0.20,VWS V14.01,2013-12-07 23:15:00,
2013-12-07 18:20:00,29.8,19.9,30.39,North,1,0.0,0.0,66,0.00,,,0.20,VWS V14.01,2013-12-07 23:20:00,
2013-12-07 18:25:00,30.0,20.0,30.39,North,1,0.0,0.0,66,0.00,,,0.20,VWS V14.01,2013-12-07 23:25:00,
2013-12-07 18:30:00,30.0,20.0,30.39,North,1,0.0,0.0,66,0.00,,,0.20,VWS V14.01,2013-12-07 23:30:00,
2013-12-07 18:35:00,29.8,20.1,30.39,North,1,0.0,0.0,67,0.00,,,0.20,VWS V14.01,2013-12-07 23:35:00,
2013-12-07 18:40:00,29.7,19.9,30.39,North,1,0.0,0.0,67,0.00,,,0.20,VWS V14.01,2013-12-07 23:40:00,
2013-12-07 18:45:00,29.5,20.0,30.39,North,1,0.0,0.0,67,0.00,,,0.20,VWS V14.01,2013-12-07 23:45:00,
2013-12-07 18:50:00,29.5,20.0,30.39,North,1,0.0,0.0,67,0.00,,,0.20,VWS V14.01,2013-12-07 23:50:00,
2013-12-07 18:55:00,29.5,20.2,30.39,North,1,0.0,0.0,68,0.00,,,0.20,VWS V14.01,2013-12-07 23:55:00,
2013-12-07 19:00:00,29.3,20.3,30.42,North,1,0.0,0.0,69,0.00,,,0.20,VWS V14.01,2013-12-08 00:00:00,
2013-12-07 19:05:00,29.5,20.4,30.42,North,1,0.0,0.0,69,0.00,,OVC028,0.20,VWS V14.01,2013-12-08 00:05:00,
2013-12-07 19:10:00,29.5,20.7,30.42,North,1,0.0,0.0,69,0.00,,OVC028,0.20,VWS V14.01,2013-12-08 00:10:00,
2013-12-07 19:15:00,29.5,20.9,30.42,North,1,0.0,0.0,70,0.00,,OVC028,0.20,VWS V14.01,2013-12-08 00:15:00,
2013-12-07 19:20:00,29.5,20.7,30.42,North,1,0.0,0.0,69,0.00,,OVC028,0.20,VWS V14.01,2013-12-08 00:20:00,
2013-12-07 19:25:00,29.3,20.5,30.42,North,1,0.0,0.0,69,0.00,,OVC028,0.20,VWS V14.01,2013-12-08 00:25:00,
2013-12-07 19:30:00,29.1,20.1,30.42,North,1,0.0,0.0,69,0.00,,OVC028,0.20,VWS V14.01,2013-12-08 00:30:00,
2013-12-07 19:35:00,29.1,19.6,30.42,North,1,0.0,0.0,67,0.00,,OVC028,0.20,VWS V14.01,2013-12-08 00:35:00,
2013-12-07 19:40:00,29.3,19.6,30.42,North,1,0.0,0.0,67,0.00,,OVC028,0.20,VWS V14.01,2013-12-08 00:40:00,
2013-12-07 19:45:00,29.5,19.5,30.42,North,1,0.0,0.0,66,0.00,,OVC028,0.20,VWS V14.01,2013-12-08 00:45:00,
2013-12-07 19:50:00,29.7,19.7,30.42,North,1,0.0,0.0,66,0.00,,OVC028,0.20,VWS V14.01,2013-12-08 00:50:00,
2013-12-07 19:55:00,29.8,19.9,30.42,NE,56,5.4,5.4,66,0.00,,OVC028,0.20,VWS V14.01,2013-12-08 00:55:00,
2013-12-07 20:00:00,30.0,19.8,30.45,North,2,0.0,0.0,65,0.00,,OVC028,0.20,VWS V14.01,2013-12-08 01:00:00,
2013-12-07 20:05:00,30.0,19.8,30.45,NW,320,0.0,4.5,65,0.00,,OVC026,0.20,VWS V14.01,2013-12-08 01:05:00,
2013-12-07 20:10:00,30.2,20.0,30.45,NNW,339,0.0,0.0,65,0.00,,OVC026,0.20,VWS V14.01,2013-12-08 01:10:00,
2013-12-07 20:15:00,30.2,19.7,30.45,NNW,339,0.0,0.0,65,0.00,,OVC026,0.20,VWS V14.01,2013-12-08 01:15:00,
2013-12-07 20:20:00,30.2,20.0,30.45,NNW,339,0.0,0.0,65,0.00,,OVC026,0.20,VWS V14.01,2013-12-08 01:20:00,
2013-12-07 20:25:00,30.0,19.8,30.45,NNW,339,0.0,0.0,65,0.00,,OVC026,0.20,VWS V14.01,2013-12-08 01:25:00,
2013-12-07 20:30:00,29.8,19.6,30.45,NNW,342,0.0,0.0,65,0.00,,OVC026,0.20,VWS V14.01,2013-12-08 01:30:00,
2013-12-07 20:35:00,29.8,19.6,30.45,NNW,342,0.0,0.0,65,0.00,,OVC026,0.20,VWS V14.01,2013-12-08 01:35:00,
2013-12-07 20:40:00,29.8,19.4,30.45,WSW,244,0.0,0.0,65,0.00,,OVC026,0.20,VWS V14.01,2013-12-08 01:40:00,
2013-12-07 20:45:00,29.8,19.6,30.45,WSW,244,0.0,0.0,65,0.00,,OVC026,0.20,VWS V14.01,2013-12-08 01:45:00,
2013-12-07 20:50:00,29.7,19.4,30.45,WSW,245,0.0,0.0,65,0.00,,OVC026,0.20,VWS V14.01,2013-12-08 01:50:00,
2013-12-07 20:55:00,29.5,19.3,30.45,NNE,14,0.0,0.0,65,0.00,,OVC026,0.20,VWS V14.01,2013-12-08 01:55:00,
2013-12-07 21:00:00,29.3,18.9,30.45,North,8,0.0,0.0,65,0.00,,,0.20,VWS V14.01,2013-12-08 02:00:00,
2013-12-07 21:05:00,29.5,19.0,30.45,North,357,0.0,0.0,65,0.00,,,0.20,VWS V14.01,2013-12-08 02:05:00,
2013-12-07 21:10:00,29.5,19.0,30.45,North,357,0.0,0.0,65,0.00,,,0.20,VWS V14.01,2013-12-08 02:10:00,
2013-12-07 21:15:00,29.5,19.0,30.45,North,357,0.0,0.0,65,0.00,,,0.20,VWS V14.01,2013-12-08 02:15:00,
2013-12-07 21:20:00,29.5,18.8,30.45,WNW,293,0.0,0.0,64,0.00,,,0.20,VWS V14.01,2013-12-08 02:20:00,
2013-12-07 21:25:00,29.3,18.9,30.45,WNW,293,0.0,0.0,65,0.00,,,0.20,VWS V14.01,2013-12-08 02:25:00,
2013-12-07 21:30:00,29.1,18.7,30.45,WNW,293,0.0,0.0,65,0.00,,,0.20,VWS V14.01,2013-12-08 02:30:00,
2013-12-07 21:35:00,28.9,18.5,30.45,WNW,293,0.0,0.0,65,0.00,,,0.20,VWS V14.01,2013-12-08 02:35:00,
2013-12-07 21:40:00,28.9,18.5,30.45,WNW,293,0.0,0.0,65,0.00,,,0.20,VWS V14.01,2013-12-08 02:40:00,
2013-12-07 21:45:00,28.6,18.2,30.45,WNW,293,0.0,0.0,65,0.00,,,0.20,VWS V14.01,2013-12-08 02:45:00,
2013-12-07 21:50:00,28.6,18.2,30.45,WNW,293,0.0,0.0,65,0.00,,,0.20,VWS V14.01,2013-12-08 02:50:00,
2013-12-07 21:55:00,28.6,17.9,30.45,WNW,293,0.0,0.0,64,0.00,,,0.20,VWS V14.01,2013-12-08 02:55:00,
2013-12-07 22:00:00,28.6,17.9,30.48,WNW,293,0.0,0.0,64,0.00,,,0.20,VWS V14.01,2013-12-08 03:00:00,
2013-12-07 22:05:00,28.4,18.0,30.48,WNW,293,0.0,0.0,65,0.00,,OVC026,0.20,VWS V14.01,2013-12-08 03:05:00,
2013-12-07 22:10:00,28.2,17.8,30.48,WNW,293,0.0,0.0,65,0.00,,OVC026,0.20,VWS V14.01,2013-12-08 03:10:00,
2013-12-07 22:15:00,28.4,18.0,30.48,WNW,293,0.0,0.0,65,0.00,,OVC026,0.20,VWS V14.01,2013-12-08 03:15:00,
2013-12-07 22:20:00,28.4,18.0,30.48,WNW,293,0.0,0.0,65,0.00,,OVC026,0.20,VWS V14.01,2013-12-08 03:20:00,
2013-12-07 22:25:00,28.6,17.9,30.48,WNW,293,0.0,0.0,64,0.00,,OVC026,0.20,VWS V14.01,2013-12-08 03:25:00,
2013-12-07 22:30:00,28.4,18.0,30.48,WNW,293,0.0,0.0,65,0.00,,OVC026,0.20,VWS V14.01,2013-12-08 03:30:00,
2013-12-07 22:35:00,28.2,17.8,30.48,WNW,293,0.0,0.0,65,0.00,,OVC026,0.20,VWS V14.01,2013-12-08 03:35:00,
2013-12-07 22:40:00,28.0,17.6,30.48,WNW,293,0.0,0.0,65,0.00,,OVC026,0.20,VWS V14.01,2013-12-08 03:40:00,
2013-12-07 22:45:00,28.2,17.8,30.48,WNW,293,0.0,0.0,65,0.00,,OVC026,0.20,VWS V14.01,2013-12-08 03:45:00,
2013-12-07 22:50:00,28.4,17.8,30.48,WNW,293,0.0,0.0,64,0.00,,OVC026,0.20,VWS V14.01,2013-12-08 03:50:00,
2013-12-07 22:55:00,28.4,17.8,30.48,WNW,293,0.0,0.0,64,0.00,,OVC026,0.20,VWS V14.01,2013-12-08 03:55:00,
2013-12-07 23:00:00,28.4,18.0,30.48,WNW,293,0.0,0.0,65,0.00,,,0.20,VWS V14.01,2013-12-08 04:00:00,
2013-12-07 23:05:00,28.2,17.8,30.48,WNW,293,0.0,0.0,65,0.00,,,0.20,VWS V14.01,2013-12-08 04:05:00,
2013-12-07 23:10:00,28.2,17.8,30.48,WNW,293,0.0,0.0,65,0.00,,,0.20,VWS V14.01,2013-12-08 04:10:00,
2013-12-07 23:15:00,28.2,17.8,30.51,WNW,293,0.0,0.0,65,0.00,,,0.20,VWS V14.01,2013-12-08 04:15:00,
2013-12-07 23:20:00,28.2,17.8,30.51,WNW,293,0.0,0.0,65,0.00,,,0.20,VWS V14.01,2013-12-08 04:20:00,
2013-12-07 23:25:00,28.2,17.8,30.51,WNW,293,0.0,0.0,65,0.00,,,0.20,VWS V14.01,2013-12-08 04:25:00,
2013-12-07 23:30:00,28.0,17.6,30.51,WNW,293,0.0,0.0,65,0.00,,,0.20,VWS V14.01,2013-12-08 04:30:00,
2013-12-07 23:35:00,27.9,17.5,30.51,WNW,293,0.0,0.0,65,0.00,,,0.20,VWS V14.01,2013-12-08 04:35:00,
2013-12-07 23:40:00,27.9,17.5,30.51,WNW,293,0.0,0.0,65,0.00,,,0.20,VWS V14.01,2013-12-08 04:40:00,
2013-12-07 23:45:00,27.9,17.5,30.51,WNW,293,0.0,0.0,65,0.00,,,0.20,VWS V14.01,2013-12-08 04:45:00,
2013-12-07 23:50:00,27.9,17.7,30.51,WNW,293,0.0,0.0,65,0.00,,,0.20,VWS V14.01,2013-12-08 04:50:00,
2013-12-07 23:55:00,27.9,17.7,30.51,WNW,293,0.0,0.0,65,0.00,,,0.20,VWS V14.01,2013-12-08 04:55:00,